createdAt,value
2017-08-04T00:02:25.842Z,18.40
2017-08-04T00:04:54.176Z,18.50
2017-08-04T00:07:22.486Z,18.40
2017-08-04T00:09:50.840Z,18.30
2017-08-04T00:12:19.165Z,18.30
2017-08-04T00:14:47.469Z,18.30
2017-08-04T00:17:15.802Z,18.30
2017-08-04T00:19:44.115Z,18.30
2017-08-04T00:22:12.450Z,18.40
2017-08-04T00:24:40.759Z,18.30
2017-08-04T00:27:09.081Z,18.20
2017-08-04T00:29:37.402Z,18.10
2017-08-04T00:32:05.741Z,18.10
2017-08-04T00:34:34.054Z,18.10
2017-08-04T00:37:02.432Z,18.00
2017-08-04T00:39:30.747Z,18.00
2017-08-04T00:41:59.074Z,18.20
2017-08-04T00:44:27.412Z,18.20
2017-08-04T00:46:55.726Z,18.20
2017-08-04T00:49:24.054Z,18.20
2017-08-04T00:51:52.359Z,18.10
2017-08-04T00:54:20.696Z,18.00
2017-08-04T00:56:49.001Z,18.00
2017-08-04T00:59:17.321Z,17.80
2017-08-04T01:01:45.631Z,17.70
2017-08-04T01:04:13.968Z,17.80
2017-08-04T01:06:42.269Z,17.90
2017-08-04T01:09:10.623Z,18.00
2017-08-04T01:11:38.940Z,17.80
2017-08-04T01:14:07.243Z,17.80
2017-08-04T01:16:35.584Z,17.70
2017-08-04T01:19:03.911Z,17.60
2017-08-04T01:21:32.247Z,17.70
2017-08-04T01:24:00.553Z,17.70
2017-08-04T01:26:28.888Z,17.70
2017-08-04T01:28:57.202Z,17.70
2017-08-04T01:31:25.543Z,17.60
2017-08-04T01:33:53.858Z,17.60
2017-08-04T01:36:22.215Z,17.50
2017-08-04T01:38:50.532Z,17.40
2017-08-04T01:41:18.873Z,17.40
2017-08-04T01:43:47.186Z,17.30
2017-08-04T01:46:15.501Z,17.30
2017-08-04T01:48:43.846Z,17.30
2017-08-04T01:51:12.164Z,17.30
2017-08-04T01:53:40.513Z,17.20
2017-08-04T01:56:08.827Z,17.20
2017-08-04T01:58:37.161Z,17.20
2017-08-04T02:01:05.476Z,17.20
2017-08-04T02:03:33.815Z,17.10
2017-08-04T02:06:02.116Z,17.10
2017-08-04T02:08:30.472Z,17.10
2017-08-04T02:10:58.857Z,17.00
2017-08-04T02:13:27.252Z,17.00
2017-08-04T02:15:55.575Z,17.00
2017-08-04T02:18:23.894Z,16.90
2017-08-04T02:20:52.235Z,16.90
2017-08-04T02:23:20.542Z,16.90
2017-08-04T02:25:48.882Z,16.90
2017-08-04T02:28:17.215Z,16.90
2017-08-04T02:30:45.552Z,17.00
2017-08-04T02:33:13.871Z,17.10
2017-08-04T02:35:42.216Z,17.10
2017-08-04T02:38:10.528Z,17.10
2017-08-04T02:40:38.884Z,17.10
2017-08-04T02:43:07.203Z,17.20
2017-08-04T02:45:35.564Z,17.10
2017-08-04T02:48:03.879Z,16.90
2017-08-04T02:50:32.203Z,16.90
2017-08-04T02:53:00.561Z,17.00
2017-08-04T02:55:28.884Z,17.10
2017-08-04T02:57:57.225Z,17.10
2017-08-04T03:00:25.550Z,17.10
2017-08-04T03:02:53.897Z,17.20
2017-08-04T03:05:22.218Z,17.20
2017-08-04T03:07:50.567Z,17.20
2017-08-04T03:10:18.872Z,17.10
2017-08-04T03:12:47.202Z,16.90
2017-08-04T03:15:15.520Z,17.00
2017-08-04T03:17:43.856Z,17.10
2017-08-04T03:20:12.162Z,17.00
2017-08-04T03:22:40.477Z,17.00
2017-08-04T03:25:08.810Z,17.10
2017-08-04T03:27:37.128Z,17.20
2017-08-04T03:30:05.463Z,17.00
2017-08-04T03:32:33.764Z,17.10
2017-08-04T03:35:02.098Z,17.30
2017-08-04T03:37:30.410Z,17.20
2017-08-04T03:39:58.751Z,17.10
2017-08-04T03:42:28.898Z,17.00
2017-08-04T03:44:57.223Z,17.00
2017-08-04T03:47:25.939Z,16.90
2017-08-04T03:49:54.274Z,17.00
2017-08-04T03:52:22.586Z,17.00
2017-08-04T03:54:50.915Z,17.10
2017-08-04T03:57:19.262Z,17.20
2017-08-04T03:59:47.569Z,17.20
2017-08-04T04:02:15.922Z,17.30
2017-08-04T04:04:44.258Z,17.30
2017-08-04T04:07:12.589Z,17.40
2017-08-04T04:09:40.905Z,17.40
2017-08-04T04:12:09.238Z,17.50
2017-08-04T04:14:37.552Z,17.50
2017-08-04T04:17:05.961Z,17.40
2017-08-04T04:19:34.278Z,17.50
2017-08-04T04:22:02.652Z,17.50
2017-08-04T04:24:32.428Z,17.60
2017-08-04T04:27:00.743Z,17.70
2017-08-04T04:29:29.086Z,17.70
2017-08-04T04:31:57.522Z,17.70
2017-08-04T04:34:25.863Z,17.60
2017-08-04T04:36:54.192Z,17.80
2017-08-04T04:39:22.529Z,17.80
2017-08-04T04:41:50.830Z,17.90
2017-08-04T04:44:19.166Z,17.90
2017-08-04T04:46:47.533Z,18.00
2017-08-04T04:49:15.862Z,18.10
2017-08-04T04:51:44.162Z,18.00
2017-08-04T04:54:12.527Z,17.90
2017-08-04T04:56:40.842Z,17.90
2017-08-04T04:59:09.154Z,18.00
2017-08-04T05:01:37.654Z,18.00
2017-08-04T05:04:05.957Z,18.00
2017-08-04T05:06:34.302Z,18.10
2017-08-04T05:09:02.614Z,18.20
2017-08-04T05:11:30.961Z,18.40
2017-08-04T05:13:59.269Z,18.40
2017-08-04T05:16:27.607Z,18.40
2017-08-04T05:18:55.919Z,18.50
2017-08-04T05:21:24.270Z,18.50
2017-08-04T05:23:52.578Z,18.60
2017-08-04T05:26:20.914Z,18.70
2017-08-04T05:28:49.225Z,18.80
2017-08-04T05:31:17.543Z,18.80
2017-08-04T05:33:45.879Z,18.80
2017-08-04T05:36:14.207Z,18.90
2017-08-04T05:38:42.562Z,19.00
2017-08-04T05:41:10.870Z,19.00
2017-08-04T05:43:39.207Z,19.10
2017-08-04T05:46:07.521Z,19.10
2017-08-04T05:48:35.852Z,19.20
2017-08-04T05:51:04.176Z,19.20
2017-08-04T05:53:32.505Z,19.30
2017-08-04T05:56:00.814Z,19.30
2017-08-04T05:58:29.159Z,19.40
2017-08-04T06:00:57.467Z,19.40
2017-08-04T06:03:25.791Z,19.50
2017-08-04T06:05:54.134Z,19.60
2017-08-04T06:08:22.441Z,19.70
2017-08-04T06:10:50.767Z,19.70
2017-08-04T06:13:19.086Z,19.70
2017-08-04T06:15:47.417Z,19.70
2017-08-04T06:18:15.742Z,19.80
2017-08-04T06:20:44.090Z,19.90
2017-08-04T06:23:12.398Z,19.90
2017-08-04T06:25:40.732Z,19.90
2017-08-04T06:28:09.037Z,20.00
2017-08-04T06:30:37.386Z,20.10
2017-08-04T06:33:05.704Z,20.20
2017-08-04T06:35:34.012Z,20.20
2017-08-04T06:38:02.353Z,20.30
2017-08-04T06:40:30.660Z,20.30
2017-08-04T06:42:58.998Z,20.40
2017-08-04T06:45:27.309Z,20.50
2017-08-04T06:47:55.647Z,20.60
2017-08-04T06:50:47.680Z,20.60
2017-08-04T06:56:36.035Z,20.70
2017-08-04T06:59:04.373Z,20.80
2017-08-04T07:01:32.690Z,20.90
2017-08-04T07:07:00.964Z,21.00
2017-08-04T07:09:29.277Z,21.10
2017-08-04T07:11:57.632Z,21.10
2017-08-04T07:14:25.972Z,21.10
2017-08-04T07:16:54.286Z,21.10
2017-08-04T07:19:22.612Z,21.10
2017-08-04T07:21:50.935Z,21.20
2017-08-04T07:24:19.271Z,21.30
2017-08-04T07:26:47.584Z,21.40
2017-08-04T07:29:15.938Z,21.60
2017-08-04T07:31:44.249Z,21.70
2017-08-04T07:34:12.585Z,21.80
2017-08-04T07:36:40.901Z,21.90
2017-08-04T07:39:09.209Z,22.00
2017-08-04T07:41:37.621Z,22.00
2017-08-04T07:44:05.929Z,22.10
2017-08-04T07:46:34.266Z,22.10
2017-08-04T07:49:02.586Z,22.10
2017-08-04T07:51:30.935Z,22.20
2017-08-04T07:53:59.259Z,22.20
2017-08-04T07:56:27.674Z,22.20
2017-08-04T07:58:55.982Z,22.10
2017-08-04T08:01:24.341Z,22.20
2017-08-04T08:03:52.649Z,22.20
2017-08-04T08:06:20.959Z,22.20
2017-08-04T08:08:49.292Z,22.20
2017-08-04T08:11:17.611Z,22.30
2017-08-04T08:13:45.948Z,22.40
2017-08-04T08:16:14.261Z,22.60
2017-08-04T08:18:42.607Z,22.70
2017-08-04T08:21:11.108Z,22.80
2017-08-04T08:23:39.579Z,22.80
2017-08-04T08:26:08.014Z,22.90
2017-08-04T08:28:36.454Z,23.10
2017-08-04T08:31:04.777Z,23.20
2017-08-04T08:33:33.087Z,23.30
2017-08-04T08:36:01.422Z,23.40
2017-08-04T08:38:29.726Z,23.50
2017-08-04T08:40:58.057Z,23.40
2017-08-04T08:43:26.370Z,23.30
2017-08-04T08:45:54.705Z,23.30
2017-08-04T08:48:23.006Z,23.30
2017-08-04T08:50:51.338Z,23.30
2017-08-04T08:53:19.674Z,23.30
2017-08-04T08:55:48.036Z,23.30
2017-08-04T08:58:16.361Z,23.20
2017-08-04T09:00:44.696Z,23.10
2017-08-04T09:03:13.001Z,23.10
2017-08-04T09:05:41.316Z,23.10
2017-08-04T09:08:09.650Z,23.20
2017-08-04T09:10:38.098Z,23.10
2017-08-04T09:13:06.443Z,23.00
2017-08-04T09:15:34.763Z,23.00
2017-08-04T09:18:03.090Z,23.00
2017-08-04T09:20:31.413Z,23.10
2017-08-04T09:22:59.733Z,23.30
2017-08-04T09:25:28.077Z,23.40
2017-08-04T09:27:56.423Z,23.50
2017-08-04T09:30:24.742Z,23.50
2017-08-04T09:32:53.050Z,23.70
2017-08-04T09:35:21.381Z,23.80
2017-08-04T09:37:49.699Z,23.80
2017-08-04T09:40:18.156Z,23.70
2017-08-04T09:42:46.466Z,23.60
2017-08-04T09:45:14.787Z,23.70
2017-08-04T09:47:43.091Z,23.70
2017-08-04T09:50:11.425Z,23.70
2017-08-04T09:52:39.747Z,23.80
2017-08-04T09:55:08.079Z,23.80
2017-08-04T09:57:42.952Z,23.80
2017-08-04T10:00:11.286Z,23.80
2017-08-04T10:02:39.621Z,23.80
2017-08-04T10:05:07.977Z,23.90
2017-08-04T10:07:36.293Z,24.10
2017-08-04T10:10:04.607Z,24.20
2017-08-04T10:12:32.940Z,24.40
2017-08-04T10:15:01.255Z,24.50
2017-08-04T10:17:29.581Z,24.60
2017-08-04T10:19:57.900Z,24.60
2017-08-04T10:22:26.233Z,24.60
2017-08-04T10:24:54.541Z,24.70
2017-08-04T10:27:22.875Z,24.70
2017-08-04T10:29:51.183Z,24.60
2017-08-04T10:32:19.530Z,24.60
2017-08-04T10:34:47.830Z,24.60
2017-08-04T10:37:16.142Z,24.80
2017-08-04T10:39:44.493Z,25.00
2017-08-04T10:48:13.658Z,25.50
2017-08-04T10:50:42.001Z,25.50
2017-08-04T10:53:10.320Z,25.30
2017-08-04T10:55:38.654Z,25.30
2017-08-04T10:58:06.967Z,25.30
2017-08-04T11:00:35.298Z,25.40
2017-08-04T11:03:03.643Z,25.50
2017-08-04T11:05:31.971Z,25.40
2017-08-04T11:08:00.275Z,25.30
2017-08-04T11:10:28.605Z,25.40
2017-08-04T11:12:56.908Z,25.10
2017-08-04T11:15:25.226Z,25.10
2017-08-04T11:17:53.565Z,25.00
2017-08-04T11:20:21.876Z,25.00
2017-08-04T11:22:50.203Z,25.10
2017-08-04T11:25:18.512Z,25.00
2017-08-04T11:30:46.764Z,25.20
2017-08-04T11:33:16.019Z,25.20
2017-08-04T11:35:45.190Z,25.30
2017-08-04T11:38:13.515Z,25.50
2017-08-04T11:40:41.827Z,25.40
2017-08-04T11:43:10.150Z,25.50
2017-08-04T11:45:38.465Z,25.50
2017-08-04T11:48:06.812Z,25.50
2017-08-04T11:50:35.130Z,25.90
2017-08-04T11:53:03.448Z,26.10
2017-08-04T11:55:31.780Z,26.00
2017-08-04T11:58:00.095Z,25.90
2017-08-04T12:00:28.428Z,25.60
2017-08-04T12:02:56.757Z,25.60
2017-08-04T12:05:25.088Z,25.50
2017-08-04T12:07:53.393Z,25.30
2017-08-04T12:10:21.728Z,25.40
2017-08-04T12:12:50.051Z,25.60
2017-08-04T12:15:18.375Z,25.90
2017-08-04T12:17:46.716Z,25.90
2017-08-04T12:20:15.015Z,25.80
2017-08-04T12:22:43.346Z,25.80
2017-08-04T12:25:11.668Z,25.50
2017-08-04T12:27:40.002Z,25.60
2017-08-04T12:30:08.393Z,26.00
2017-08-04T12:32:36.743Z,25.90
2017-08-04T12:35:05.053Z,26.00
2017-08-04T12:37:33.401Z,25.90
2017-08-04T12:40:01.714Z,25.70
2017-08-04T12:42:30.056Z,25.60
2017-08-04T12:44:58.513Z,25.70
2017-08-04T12:47:26.835Z,25.70
2017-08-04T12:49:55.165Z,25.90
2017-08-04T12:52:23.494Z,25.80
2017-08-04T12:54:51.827Z,25.50
2017-08-04T12:57:20.137Z,25.60
2017-08-04T12:59:48.482Z,25.50
2017-08-04T13:02:16.805Z,25.60
2017-08-04T13:04:45.147Z,25.70
2017-08-04T13:07:13.690Z,25.80
2017-08-04T13:09:42.031Z,25.90
2017-08-04T13:12:10.343Z,26.10
2017-08-04T13:14:39.599Z,26.30
2017-08-04T13:17:07.921Z,26.10
2017-08-04T13:19:36.345Z,26.30
2017-08-04T13:22:04.669Z,26.30
2017-08-04T13:24:32.977Z,26.30
2017-08-04T13:27:01.309Z,26.10
2017-08-04T13:29:29.639Z,26.10
2017-08-04T13:31:57.974Z,26.10
2017-08-04T13:34:27.200Z,26.50
2017-08-04T13:36:55.542Z,26.60
2017-08-04T13:39:23.862Z,26.40
2017-08-04T13:41:52.190Z,26.20
2017-08-04T13:44:20.506Z,26.20
2017-08-04T13:46:48.834Z,26.00
2017-08-04T13:49:17.146Z,26.20
2017-08-04T13:51:46.404Z,26.40
2017-08-04T13:54:14.708Z,26.30
2017-08-04T13:56:43.047Z,26.40
2017-08-04T13:59:11.346Z,26.30
2017-08-04T14:01:39.673Z,26.60
2017-08-04T14:04:08.191Z,26.50
2017-08-04T14:06:36.511Z,26.60
2017-08-04T14:09:04.844Z,26.60
2017-08-04T14:11:33.170Z,26.50
2017-08-04T14:14:01.506Z,26.40
2017-08-04T14:16:29.847Z,26.60
2017-08-04T14:18:58.399Z,26.60
2017-08-04T14:21:26.716Z,26.80
2017-08-04T14:23:55.046Z,26.60
2017-08-04T14:26:23.354Z,26.70
2017-08-04T14:28:51.687Z,26.70
2017-08-04T14:31:20.005Z,26.90
2017-08-04T14:33:48.316Z,26.70
2017-08-04T14:36:16.659Z,26.60
2017-08-04T14:38:44.966Z,26.40
2017-08-04T14:41:13.283Z,26.40
2017-08-04T14:43:41.593Z,26.40
2017-08-04T14:46:09.936Z,26.50
2017-08-04T14:48:38.239Z,26.60
2017-08-04T14:51:06.580Z,26.50
2017-08-04T14:53:34.898Z,26.50
2017-08-04T14:56:03.241Z,26.40
2017-08-04T15:01:32.111Z,26.30
2017-08-04T15:04:00.570Z,26.50
2017-08-04T15:06:29.033Z,26.60
2017-08-04T15:08:57.347Z,26.50
2017-08-04T15:11:25.668Z,26.40
2017-08-04T15:13:53.984Z,26.30
2017-08-04T15:16:22.284Z,26.20
2017-08-04T15:18:50.617Z,26.20
2017-08-04T15:21:18.920Z,26.20
2017-08-04T15:23:47.251Z,26.30
2017-08-04T15:26:15.554Z,26.30
2017-08-04T15:28:43.872Z,26.30
2017-08-04T15:31:12.174Z,26.20
2017-08-04T15:33:40.496Z,26.10
2017-08-04T15:36:08.827Z,26.20
2017-08-04T15:38:37.161Z,26.20
2017-08-04T15:41:05.460Z,26.30
2017-08-04T15:43:33.801Z,26.40
2017-08-04T15:46:02.110Z,26.20
2017-08-04T15:48:30.414Z,26.30
2017-08-04T15:50:58.738Z,26.40
2017-08-04T15:53:27.045Z,26.30
2017-08-04T15:55:55.372Z,26.30
2017-08-04T15:58:23.668Z,26.20
2017-08-04T16:00:52.007Z,26.20
2017-08-04T16:03:20.311Z,26.10
2017-08-04T16:05:48.638Z,26.00
2017-08-04T16:08:16.942Z,25.90
2017-08-04T16:10:45.284Z,26.00
2017-08-04T16:13:14.496Z,26.00
2017-08-04T16:15:42.818Z,26.10
2017-08-04T16:18:11.123Z,25.80
2017-08-04T16:20:39.441Z,25.80
2017-08-04T16:23:07.745Z,25.70
2017-08-04T16:25:36.074Z,25.60
2017-08-04T16:28:04.378Z,25.60
2017-08-04T16:30:32.682Z,25.50
2017-08-04T16:33:01.007Z,25.50
2017-08-04T16:35:30.213Z,25.60
2017-08-04T16:37:58.791Z,25.50
2017-08-04T16:40:28.087Z,25.60
2017-08-04T16:42:57.326Z,25.50
2017-08-04T16:45:25.991Z,25.50
2017-08-04T16:47:54.300Z,25.40
2017-08-04T16:50:22.603Z,25.50
2017-08-04T16:52:50.924Z,25.60
2017-08-04T16:55:19.243Z,25.60
2017-08-04T16:57:47.573Z,25.60
2017-08-04T17:00:15.967Z,25.50
2017-08-04T17:05:43.975Z,25.40
2017-08-04T17:08:12.331Z,25.40
2017-08-04T17:10:40.639Z,25.10
2017-08-04T17:13:08.991Z,25.10
2017-08-04T17:15:37.277Z,25.10
2017-08-04T17:18:05.641Z,25.00
2017-08-04T17:20:33.962Z,25.00
2017-08-04T17:26:01.822Z,25.00
2017-08-04T17:28:30.129Z,24.80
2017-08-04T17:30:58.452Z,24.80
2017-08-04T17:33:26.753Z,24.80
2017-08-04T17:35:55.188Z,24.70
2017-08-04T17:38:23.494Z,24.70
2017-08-04T17:40:51.820Z,24.60
2017-08-04T17:43:20.261Z,24.60
2017-08-04T17:45:48.606Z,24.50
2017-08-04T17:48:16.914Z,24.50
2017-08-04T17:50:45.318Z,24.40
2017-08-04T17:53:13.776Z,24.40
2017-08-04T17:55:42.081Z,24.40
2017-08-04T17:58:37.192Z,24.30
2017-08-04T18:01:05.512Z,24.30
2017-08-04T18:03:33.938Z,24.10
2017-08-04T18:06:02.249Z,24.10
2017-08-04T18:08:30.577Z,24.10
2017-08-04T18:10:58.886Z,24.00
2017-08-04T18:13:27.199Z,24.00
2017-08-04T18:15:55.500Z,24.00
2017-08-04T18:18:23.859Z,23.80
2017-08-04T18:20:52.160Z,23.80
2017-08-04T18:23:20.491Z,23.80
2017-08-04T18:25:48.794Z,23.80
2017-08-04T18:28:17.128Z,23.80
2017-08-04T18:30:45.786Z,23.80
2017-08-04T18:33:14.167Z,23.80
2017-08-04T18:35:42.483Z,23.80
2017-08-04T18:38:10.786Z,23.70
2017-08-04T18:40:39.102Z,23.60
2017-08-04T18:43:07.394Z,23.40
2017-08-04T18:45:35.751Z,23.40
2017-08-04T18:48:04.057Z,23.40
2017-08-04T18:50:32.526Z,23.30
2017-08-04T18:53:00.868Z,23.20
2017-08-04T18:55:29.194Z,23.20
2017-08-04T18:57:57.502Z,23.00
2017-08-04T19:00:25.827Z,23.10
2017-08-04T19:02:54.157Z,23.00
2017-08-04T19:05:22.857Z,22.90
2017-08-04T19:07:51.265Z,23.00
2017-08-04T19:10:19.604Z,23.10
2017-08-04T19:12:47.903Z,23.00
2017-08-04T19:15:16.265Z,22.80
2017-08-04T19:17:44.751Z,22.80
2017-08-04T19:20:13.057Z,22.80
2017-08-04T19:22:41.380Z,22.60
2017-08-04T19:25:09.685Z,22.60
2017-08-04T19:27:38.007Z,22.50
2017-08-04T19:30:06.306Z,22.30
2017-08-04T19:32:34.631Z,22.20
2017-08-04T19:35:02.947Z,22.20
2017-08-04T19:37:31.302Z,22.20
2017-08-04T19:39:59.825Z,22.10
2017-08-04T19:42:28.131Z,22.00
2017-08-04T19:44:56.437Z,21.80
2017-08-04T19:47:24.805Z,21.70
2017-08-04T19:49:53.114Z,21.60
2017-08-04T19:52:21.454Z,21.70
2017-08-04T19:54:50.732Z,21.80
2017-08-04T19:57:19.061Z,21.70
2017-08-04T19:59:47.414Z,21.70
2017-08-04T20:02:15.718Z,21.70
2017-08-04T20:04:44.052Z,21.60
2017-08-04T20:07:12.358Z,21.50
2017-08-04T20:09:40.696Z,21.10
2017-08-04T20:12:09.004Z,21.00
2017-08-04T20:14:37.327Z,21.10
2017-08-04T20:17:05.645Z,21.10
2017-08-04T20:19:34.015Z,21.00
2017-08-04T20:22:02.329Z,21.10
2017-08-04T20:24:30.637Z,20.80
2017-08-04T20:26:58.960Z,20.60
2017-08-04T20:29:27.260Z,20.70
2017-08-04T20:31:55.589Z,20.50
2017-08-04T20:34:23.914Z,20.40
2017-08-04T20:36:52.353Z,20.40
2017-08-04T20:39:20.656Z,20.30
2017-08-04T20:41:49.023Z,20.10
2017-08-04T20:44:17.348Z,20.00
2017-08-04T20:46:45.677Z,19.90
2017-08-04T20:49:14.001Z,19.90
2017-08-04T20:51:42.317Z,19.90
2017-08-04T20:54:10.639Z,19.80
2017-08-04T20:56:38.981Z,19.70
2017-08-04T20:59:07.284Z,19.70
2017-08-04T21:01:35.642Z,19.60
2017-08-04T21:04:03.947Z,19.50
2017-08-04T21:06:32.261Z,19.30
2017-08-04T21:09:00.595Z,19.20
2017-08-04T21:11:28.930Z,19.20
2017-08-04T21:13:57.248Z,19.20
2017-08-04T21:16:25.553Z,19.20
2017-08-04T21:18:53.872Z,19.20
2017-08-04T21:21:22.207Z,19.20
2017-08-04T21:23:50.536Z,19.00
2017-08-04T21:26:18.844Z,19.00
2017-08-04T21:28:47.178Z,19.00
2017-08-04T21:31:15.481Z,18.90
2017-08-04T21:33:43.845Z,18.80
2017-08-04T21:36:12.146Z,18.90
2017-08-04T21:38:40.483Z,18.90
2017-08-04T21:41:09.124Z,18.70
2017-08-04T21:43:37.443Z,18.60
2017-08-04T21:46:05.770Z,18.70
2017-08-04T21:48:34.079Z,18.70
2017-08-04T21:51:02.392Z,18.50
2017-08-04T21:53:30.701Z,18.40
2017-08-04T21:55:59.033Z,18.40
2017-08-04T21:58:27.349Z,18.40
2017-08-04T22:00:55.673Z,18.40
2017-08-04T22:03:23.992Z,18.30
2017-08-04T22:05:52.328Z,18.30
2017-08-04T22:08:20.628Z,18.20
2017-08-04T22:10:48.936Z,18.10
2017-08-04T22:13:17.252Z,18.10
2017-08-04T22:15:45.565Z,18.00
2017-08-04T22:18:13.885Z,17.90
2017-08-04T22:20:42.185Z,18.00
2017-08-04T22:23:10.524Z,18.00
2017-08-04T22:25:38.832Z,17.90
2017-08-04T22:28:07.166Z,17.90
2017-08-04T22:30:35.502Z,18.00
2017-08-04T22:33:03.839Z,17.80
2017-08-04T22:35:32.140Z,17.70
2017-08-04T22:38:00.450Z,17.80
2017-08-04T22:40:28.773Z,17.90
2017-08-04T22:42:57.093Z,17.90
2017-08-04T22:45:25.416Z,17.90
2017-08-04T22:47:53.734Z,17.80
2017-08-04T22:50:22.052Z,17.70
2017-08-04T22:52:50.356Z,17.70
2017-08-04T22:55:18.682Z,17.60
2017-08-04T22:57:46.972Z,17.30
2017-08-04T23:00:15.316Z,17.10
2017-08-04T23:02:43.640Z,17.10
2017-08-04T23:05:11.960Z,17.20
2017-08-04T23:07:40.285Z,17.20
2017-08-04T23:10:08.589Z,17.20
2017-08-04T23:12:36.964Z,17.20
2017-08-04T23:15:05.267Z,17.10
2017-08-04T23:17:33.608Z,17.10
2017-08-04T23:20:01.926Z,17.10
2017-08-04T23:22:31.080Z,16.80
2017-08-04T23:24:59.389Z,16.80
2017-08-04T23:27:27.726Z,16.90
2017-08-04T23:29:56.036Z,16.90
2017-08-04T23:32:24.371Z,16.80
2017-08-04T23:34:52.686Z,16.80
2017-08-04T23:37:21.023Z,16.70
2017-08-04T23:39:49.323Z,16.80
2017-08-04T23:42:17.646Z,16.70
2017-08-04T23:44:45.977Z,16.70
2017-08-04T23:47:14.277Z,16.70
2017-08-04T23:49:42.620Z,16.70
2017-08-04T23:52:10.929Z,16.60
2017-08-04T23:54:39.265Z,16.60
2017-08-04T23:57:07.568Z,16.60
2017-08-04T23:59:35.902Z,16.50
